createdAt,value
2022-12-25T00:01:22.362Z,77.30
2022-12-25T00:04:07.333Z,77.47
2022-12-25T00:06:52.686Z,77.21
2022-12-25T00:09:37.508Z,77.26
2022-12-25T00:12:22.396Z,76.78
2022-12-25T00:15:07.326Z,75.92
2022-12-25T00:17:52.197Z,76.30
2022-12-25T00:20:37.214Z,75.58
2022-12-25T00:23:22.065Z,75.64
2022-12-25T00:26:07.031Z,76.14
2022-12-25T00:28:51.682Z,76.15
2022-12-25T00:31:36.776Z,75.95
2022-12-25T00:34:21.637Z,76.50
2022-12-25T00:37:06.400Z,76.50
2022-12-25T00:39:51.285Z,75.92
2022-12-25T00:42:36.204Z,76.13
2022-12-25T00:45:21.258Z,75.90
2022-12-25T00:48:06.045Z,76.30
2022-12-25T00:50:51.025Z,76.75
2022-12-25T00:53:35.957Z,77.76
2022-12-25T00:56:20.902Z,77.49
2022-12-25T00:59:05.750Z,77.91
2022-12-25T01:01:51.049Z,76.45
2022-12-25T01:04:36.185Z,76.30
2022-12-25T01:07:21.185Z,75.68
2022-12-25T01:10:06.178Z,75.83
2022-12-25T01:12:51.221Z,75.57
2022-12-25T01:15:36.261Z,75.36
2022-12-25T01:18:21.162Z,75.09
2022-12-25T01:21:06.257Z,75.09
2022-12-25T01:23:51.119Z,75.22
2022-12-25T01:26:36.269Z,75.49
2022-12-25T01:29:21.215Z,74.92
2022-12-25T01:32:06.164Z,76.44
2022-12-25T01:34:55.875Z,77.30
2022-12-25T01:37:41.349Z,77.05
2022-12-25T01:40:26.334Z,75.67
2022-12-25T01:43:15.529Z,75.64
2022-12-25T01:46:03.862Z,76.85
2022-12-25T01:48:49.062Z,76.26
2022-12-25T01:51:33.963Z,76.25
2022-12-25T01:54:18.860Z,77.13
2022-12-25T01:57:03.676Z,77.18
2022-12-25T01:59:48.713Z,76.71
2022-12-25T02:02:33.574Z,75.88
2022-12-25T02:05:18.912Z,76.73
2022-12-25T02:08:03.727Z,75.20
2022-12-25T02:10:48.706Z,75.58
2022-12-25T02:13:33.496Z,75.68
2022-12-25T02:16:18.616Z,76.46
2022-12-25T02:19:03.393Z,75.92
2022-12-25T02:21:48.301Z,75.23
2022-12-25T02:24:33.273Z,76.94
2022-12-25T02:27:18.137Z,77.10
2022-12-25T02:30:02.918Z,76.67
2022-12-25T02:32:47.733Z,78.01
2022-12-25T02:35:32.688Z,76.39
2022-12-25T02:38:17.468Z,75.45
2022-12-25T02:41:02.352Z,74.85
2022-12-25T02:43:47.172Z,75.68
2022-12-25T02:46:32.135Z,75.28
2022-12-25T02:49:16.979Z,75.24
2022-12-25T02:52:01.783Z,74.31
2022-12-25T02:54:46.710Z,74.42
2022-12-25T02:57:31.625Z,73.96
2022-12-25T03:00:16.473Z,74.93
2022-12-25T03:03:01.439Z,73.16
2022-12-25T03:05:46.236Z,75.40
2022-12-25T03:08:31.144Z,76.73
2022-12-25T03:11:16.075Z,77.93
2022-12-25T03:14:01.134Z,75.32
2022-12-25T03:16:46.035Z,76.33
2022-12-25T03:19:30.947Z,75.15
2022-12-25T03:22:15.788Z,75.34
2022-12-25T03:25:00.738Z,74.33
2022-12-25T03:27:45.669Z,74.37
2022-12-25T03:30:30.589Z,75.89
2022-12-25T03:33:43.168Z,76.42
2022-12-25T03:36:20.377Z,76.28
2022-12-25T03:39:05.407Z,75.81
2022-12-25T03:41:50.260Z,75.64
2022-12-25T03:44:35.173Z,76.65
2022-12-25T03:47:20.008Z,77.35
2022-12-25T03:50:04.985Z,76.67
2022-12-25T03:52:49.913Z,77.59
2022-12-25T03:55:34.673Z,76.71
2022-12-25T03:58:19.642Z,75.86
2022-12-25T04:01:04.504Z,75.96
2022-12-25T04:03:49.434Z,77.27
2022-12-25T04:06:34.218Z,75.25
2022-12-25T04:09:19.093Z,74.93
2022-12-25T04:12:03.948Z,74.88
2022-12-25T04:14:48.917Z,74.97
2022-12-25T04:17:33.773Z,75.08
2022-12-25T04:20:18.547Z,75.36
2022-12-25T04:23:03.446Z,76.03
2022-12-25T04:25:48.335Z,75.90
2022-12-25T04:28:33.318Z,76.48
2022-12-25T04:31:18.187Z,74.94
2022-12-25T04:34:03.537Z,75.41
2022-12-25T04:36:48.296Z,75.90
2022-12-25T04:39:33.233Z,76.29
2022-12-25T04:42:18.300Z,76.47
2022-12-25T04:45:03.119Z,75.12
2022-12-25T04:47:48.008Z,74.91
2022-12-25T04:50:32.822Z,74.84
2022-12-25T04:53:17.698Z,74.38
2022-12-25T04:56:02.577Z,75.50
2022-12-25T04:58:47.589Z,75.97
2022-12-25T05:01:32.496Z,76.22
2022-12-25T05:04:17.663Z,75.60
2022-12-25T05:07:02.669Z,75.31
2022-12-25T05:09:47.500Z,75.40
2022-12-25T05:12:32.450Z,74.54
2022-12-25T05:15:17.245Z,74.80
2022-12-25T05:18:02.082Z,75.07
2022-12-25T05:20:46.986Z,76.89
2022-12-25T05:23:31.910Z,75.55
2022-12-25T05:26:16.837Z,75.03
2022-12-25T05:29:01.690Z,76.14
2022-12-25T05:31:46.651Z,74.58
2022-12-25T05:34:31.478Z,74.18
2022-12-25T05:37:16.443Z,75.16
2022-12-25T05:40:01.254Z,74.37
2022-12-25T05:42:46.176Z,74.95
2022-12-25T05:45:30.868Z,74.98
2022-12-25T05:48:15.949Z,74.62
2022-12-25T05:51:00.862Z,74.47
2022-12-25T05:53:45.789Z,73.89
2022-12-25T05:56:30.676Z,74.91
2022-12-25T05:59:15.527Z,74.69
2022-12-25T06:02:00.705Z,75.68
2022-12-25T06:04:45.976Z,75.77
2022-12-25T06:07:30.876Z,74.75
2022-12-25T06:10:15.738Z,74.51
2022-12-25T06:13:00.673Z,74.11
2022-12-25T06:15:45.579Z,73.84
2022-12-25T06:18:30.407Z,74.40
2022-12-25T06:21:15.433Z,73.99
2022-12-25T06:24:00.376Z,74.75
2022-12-25T06:26:45.737Z,73.99
2022-12-25T06:29:30.559Z,74.19
2022-12-25T06:32:15.529Z,74.43
2022-12-25T06:35:00.346Z,75.53
2022-12-25T06:37:45.303Z,75.95
2022-12-25T06:40:30.460Z,75.38
2022-12-25T06:43:15.295Z,74.63
2022-12-25T06:46:00.365Z,74.55
2022-12-25T06:48:45.059Z,75.14
2022-12-25T06:51:29.997Z,74.36
2022-12-25T06:54:14.903Z,73.88
2022-12-25T06:56:59.722Z,74.89
2022-12-25T06:59:48.436Z,75.50
2022-12-25T07:02:36.444Z,76.08
2022-12-25T07:05:21.749Z,73.99
2022-12-25T07:08:06.641Z,75.13
2022-12-25T07:10:51.550Z,75.90
2022-12-25T07:13:36.646Z,73.92
2022-12-25T07:16:21.595Z,73.32
2022-12-25T07:19:06.901Z,72.79
2022-12-25T07:21:51.797Z,73.55
2022-12-25T07:24:36.747Z,73.19
2022-12-25T07:27:21.619Z,74.96
2022-12-25T07:30:06.527Z,75.54
2022-12-25T07:32:51.437Z,76.04
2022-12-25T07:35:36.125Z,75.62
2022-12-25T07:38:21.065Z,75.41
2022-12-25T07:41:05.898Z,73.81
2022-12-25T07:43:50.915Z,75.51
2022-12-25T07:46:35.740Z,76.22
2022-12-25T07:49:20.604Z,75.73
2022-12-25T07:52:05.496Z,75.54
2022-12-25T07:54:50.487Z,75.08
2022-12-25T07:57:35.380Z,74.84
2022-12-25T08:00:20.341Z,75.27
2022-12-25T08:03:05.513Z,74.32
2022-12-25T08:05:50.485Z,74.71
2022-12-25T08:08:35.481Z,73.66
2022-12-25T08:11:20.313Z,72.64
2022-12-25T08:14:05.246Z,73.52
2022-12-25T08:16:50.195Z,73.53
2022-12-25T08:19:35.060Z,73.91
2022-12-25T08:22:20.152Z,72.58
2022-12-25T08:25:05.048Z,72.12
2022-12-25T08:27:50.051Z,74.11
2022-12-25T08:30:35.032Z,73.21
2022-12-25T08:33:19.883Z,73.09
2022-12-25T08:36:04.668Z,73.29
2022-12-25T08:38:49.540Z,73.35
2022-12-25T08:41:34.523Z,73.41
2022-12-25T08:44:19.437Z,72.89
2022-12-25T08:47:04.389Z,73.05
2022-12-25T08:49:49.284Z,73.27
2022-12-25T08:52:34.778Z,72.75
2022-12-25T08:55:19.672Z,71.49
2022-12-25T08:58:04.786Z,71.99
2022-12-25T09:00:49.606Z,72.39
2022-12-25T09:03:34.596Z,71.81
2022-12-25T09:06:19.316Z,71.69
2022-12-25T09:09:04.225Z,70.88
2022-12-25T09:11:49.041Z,69.96
2022-12-25T09:14:33.947Z,71.03
2022-12-25T09:17:19.002Z,70.77
2022-12-25T09:20:03.753Z,70.32
2022-12-25T09:22:48.641Z,70.69
2022-12-25T09:25:33.528Z,70.44
2022-12-25T09:28:18.424Z,69.63
2022-12-25T09:31:03.449Z,70.55
2022-12-25T09:33:48.273Z,69.96
2022-12-25T09:36:33.286Z,69.17
2022-12-25T09:39:18.110Z,69.42
2022-12-25T09:42:03.120Z,69.33
2022-12-25T09:44:48.040Z,69.38
2022-12-25T09:47:33.030Z,68.92
2022-12-25T09:50:18.164Z,70.40
2022-12-25T09:53:03.021Z,69.36
2022-12-25T09:55:47.979Z,69.04
2022-12-25T09:58:32.953Z,69.24
2022-12-25T10:01:18.040Z,69.86
2022-12-25T10:04:03.318Z,68.01
2022-12-25T10:06:48.258Z,68.93
2022-12-25T10:09:33.013Z,70.12
2022-12-25T10:12:17.874Z,70.72
2022-12-25T10:15:02.688Z,70.83
2022-12-25T10:17:47.608Z,71.10
2022-12-25T10:20:32.512Z,70.70
2022-12-25T10:23:17.535Z,70.44
2022-12-25T10:26:02.506Z,70.65
2022-12-25T10:28:47.333Z,69.33
2022-12-25T10:31:32.461Z,69.74
2022-12-25T10:34:17.289Z,69.90
2022-12-25T10:37:02.297Z,69.18
2022-12-25T10:39:47.311Z,69.06
2022-12-25T10:42:32.494Z,68.41
2022-12-25T10:45:17.967Z,68.65
2022-12-25T10:48:07.065Z,68.95
2022-12-25T10:50:52.860Z,68.60
2022-12-25T10:53:37.746Z,68.81
2022-12-25T10:56:23.032Z,68.07
2022-12-25T10:59:08.100Z,67.64
2022-12-25T11:01:55.533Z,67.22
2022-12-25T11:04:40.883Z,67.74
2022-12-25T11:07:25.834Z,68.58
2022-12-25T11:10:10.856Z,69.30
2022-12-25T11:12:55.869Z,68.68
2022-12-25T11:15:40.894Z,69.77
2022-12-25T11:18:26.192Z,69.49
2022-12-25T11:21:11.052Z,68.48
2022-12-25T11:23:55.913Z,67.74
2022-12-25T11:26:40.754Z,69.26
2022-12-25T11:29:25.731Z,67.82
2022-12-25T11:32:10.689Z,69.46
2022-12-25T11:34:55.614Z,69.54
2022-12-25T11:37:40.632Z,68.47
2022-12-25T11:40:25.466Z,67.38
2022-12-25T11:43:10.381Z,68.18
2022-12-25T11:45:55.160Z,66.40
2022-12-25T11:48:39.955Z,67.16
2022-12-25T11:51:24.832Z,68.49
2022-12-25T11:54:09.723Z,68.90
2022-12-25T11:56:54.595Z,68.52
2022-12-25T11:59:39.372Z,68.46
2022-12-25T12:02:24.488Z,68.24
2022-12-25T12:05:09.663Z,68.73
2022-12-25T12:07:54.764Z,67.27
2022-12-25T12:10:39.576Z,69.49
2022-12-25T12:13:24.569Z,69.14
2022-12-25T12:16:09.436Z,66.80
2022-12-25T12:18:54.249Z,66.25
2022-12-25T12:21:39.752Z,67.97
2022-12-25T12:24:24.488Z,67.93
2022-12-25T12:27:09.393Z,67.40
2022-12-25T12:29:54.225Z,67.60
2022-12-25T12:32:39.118Z,66.50
2022-12-25T12:35:24.026Z,65.91
2022-12-25T12:38:09.000Z,65.99
2022-12-25T12:40:53.997Z,66.81
2022-12-25T12:43:38.905Z,67.03
2022-12-25T12:46:30.198Z,67.72
2022-12-25T12:49:16.366Z,66.80
2022-12-25T12:52:01.166Z,66.12
2022-12-25T12:54:46.168Z,68.36
2022-12-25T12:57:31.033Z,67.70
2022-12-25T13:00:15.883Z,65.63
2022-12-25T13:03:00.977Z,65.10
2022-12-25T13:05:46.321Z,65.85
2022-12-25T13:08:31.144Z,64.78
2022-12-25T13:11:15.885Z,63.89
2022-12-25T13:14:00.762Z,64.81
2022-12-25T13:16:46.105Z,65.45
2022-12-25T13:19:31.053Z,67.17
2022-12-25T13:22:15.925Z,67.96
2022-12-25T13:25:00.834Z,66.85
2022-12-25T13:27:45.725Z,66.06
2022-12-25T13:30:30.545Z,67.35
2022-12-25T13:33:15.498Z,69.04
2022-12-25T13:36:00.336Z,66.58
2022-12-25T13:38:45.256Z,67.39
2022-12-25T13:41:29.974Z,65.97
2022-12-25T13:44:14.974Z,66.15
2022-12-25T13:46:59.844Z,65.27
2022-12-25T13:49:44.843Z,64.93
2022-12-25T13:52:29.804Z,65.90
2022-12-25T13:55:14.803Z,64.72
2022-12-25T13:57:59.643Z,65.24
2022-12-25T14:00:44.688Z,65.72
2022-12-25T14:03:29.776Z,65.75
2022-12-25T14:06:14.579Z,65.81
2022-12-25T14:08:59.834Z,64.79
2022-12-25T14:11:44.947Z,65.76
2022-12-25T14:14:29.836Z,66.52
2022-12-25T14:17:14.799Z,67.44
2022-12-25T14:20:04.002Z,69.19
2022-12-25T14:22:53.224Z,69.82
2022-12-25T14:25:38.238Z,70.00
2022-12-25T14:28:22.977Z,69.08
2022-12-25T14:31:08.087Z,67.85
2022-12-25T14:33:53.446Z,70.50
2022-12-25T14:36:38.423Z,69.82
2022-12-25T14:39:23.205Z,68.09
2022-12-25T14:42:08.107Z,67.96
2022-12-25T14:44:52.981Z,68.71
2022-12-25T14:47:37.703Z,69.05
2022-12-25T14:50:22.653Z,68.00
2022-12-25T14:53:07.448Z,68.12
2022-12-25T14:55:53.011Z,67.67
2022-12-25T14:58:38.070Z,67.10
2022-12-25T15:01:23.050Z,68.38
2022-12-25T15:04:08.476Z,68.18
2022-12-25T15:06:53.378Z,67.90
2022-12-25T15:09:38.513Z,68.10
2022-12-25T15:12:23.465Z,68.58
2022-12-25T15:15:08.401Z,68.83
2022-12-25T15:17:53.220Z,69.93
2022-12-25T15:20:38.243Z,68.86
2022-12-25T15:23:23.028Z,68.52
2022-12-25T15:26:08.000Z,69.60
2022-12-25T15:28:52.935Z,68.89
2022-12-25T15:31:37.882Z,69.82
2022-12-25T15:34:22.813Z,70.74
2022-12-25T15:37:07.609Z,71.26
2022-12-25T15:39:52.521Z,71.55
2022-12-25T15:42:38.186Z,72.51
2022-12-25T15:45:23.120Z,72.10
2022-12-25T15:48:08.254Z,72.21
2022-12-25T15:50:53.254Z,73.81
2022-12-25T15:53:38.170Z,71.73
2022-12-25T15:56:23.052Z,73.45
2022-12-25T15:59:08.115Z,72.17
2022-12-25T16:01:53.063Z,73.13
2022-12-25T16:04:38.385Z,72.50
2022-12-25T16:07:23.377Z,72.68
2022-12-25T16:10:08.231Z,71.40
2022-12-25T16:12:53.121Z,74.37
2022-12-25T16:15:37.959Z,74.43
2022-12-25T16:18:22.929Z,74.31
2022-12-25T16:21:07.702Z,74.94
2022-12-25T16:23:52.606Z,74.02
2022-12-25T16:26:37.559Z,73.63
2022-12-25T16:29:22.448Z,73.70
2022-12-25T16:32:07.445Z,74.09
2022-12-25T16:34:52.408Z,72.48
2022-12-25T16:37:37.349Z,73.84
2022-12-25T16:40:22.137Z,74.51
2022-12-25T16:43:07.206Z,72.89
2022-12-25T16:45:52.036Z,74.33
2022-12-25T16:48:37.017Z,73.67
2022-12-25T16:51:21.844Z,74.35
2022-12-25T16:54:06.750Z,72.96
2022-12-25T16:56:51.614Z,73.27
2022-12-25T16:59:36.474Z,72.82
2022-12-25T17:02:21.591Z,72.99
2022-12-25T17:05:06.815Z,72.23
2022-12-25T17:07:51.750Z,72.43
2022-12-25T17:10:36.713Z,73.89
2022-12-25T17:13:21.621Z,74.05
2022-12-25T17:16:06.563Z,74.43
2022-12-25T17:18:51.457Z,74.29
2022-12-25T17:21:36.373Z,72.39
2022-12-25T17:24:21.386Z,74.11
2022-12-25T17:27:06.274Z,73.06
2022-12-25T17:29:51.091Z,71.87
2022-12-25T17:32:36.266Z,72.02
2022-12-25T17:35:21.060Z,74.38
2022-12-25T17:38:06.047Z,74.01
2022-12-25T17:40:51.053Z,73.78
2022-12-25T17:43:36.001Z,73.27
2022-12-25T17:46:21.037Z,74.11
2022-12-25T17:49:06.368Z,74.65
2022-12-25T17:51:51.334Z,73.47
2022-12-25T17:54:36.205Z,73.41
2022-12-25T17:57:21.163Z,73.75
2022-12-25T18:00:06.005Z,73.08
2022-12-25T18:02:51.172Z,73.40
2022-12-25T18:05:36.302Z,74.13
2022-12-25T18:08:21.265Z,72.75
2022-12-25T18:11:06.275Z,72.86
2022-12-25T18:13:51.077Z,73.03
2022-12-25T18:16:36.104Z,72.60
2022-12-25T18:19:21.347Z,73.38
2022-12-25T18:22:06.310Z,73.45
2022-12-25T18:24:51.311Z,73.25
2022-12-25T18:27:36.245Z,73.72
2022-12-25T18:30:21.328Z,73.75
2022-12-25T18:33:06.178Z,72.86
2022-12-25T18:35:51.182Z,72.70
2022-12-25T18:38:36.048Z,72.29
2022-12-25T18:41:21.027Z,72.47
2022-12-25T18:44:06.022Z,70.96
2022-12-25T18:46:50.986Z,71.46
2022-12-25T18:49:36.039Z,73.45
2022-12-25T18:52:48.166Z,71.84
2022-12-25T18:55:25.946Z,72.88
2022-12-25T18:58:10.786Z,73.05
2022-12-25T19:00:55.803Z,73.97
2022-12-25T19:03:41.214Z,73.13
2022-12-25T19:06:26.073Z,72.46
2022-12-25T19:09:11.211Z,72.36
2022-12-25T19:11:55.996Z,73.25
2022-12-25T19:14:47.397Z,73.12
2022-12-25T19:17:33.561Z,73.49
2022-12-25T19:20:18.343Z,74.01
2022-12-25T19:23:03.274Z,74.19
2022-12-25T19:25:48.058Z,74.61
2022-12-25T19:28:32.865Z,76.17
2022-12-25T19:31:17.825Z,74.24
2022-12-25T19:34:02.641Z,73.08
2022-12-25T19:36:47.861Z,74.10
2022-12-25T19:39:32.578Z,73.95
2022-12-25T19:42:17.608Z,71.95
2022-12-25T19:45:02.479Z,73.79
2022-12-25T19:47:47.313Z,72.33
2022-12-25T19:50:32.241Z,72.76
2022-12-25T19:53:17.092Z,73.27
2022-12-25T19:56:02.061Z,73.72
2022-12-25T19:58:47.720Z,73.12
2022-12-25T20:01:33.193Z,73.90
2022-12-25T20:04:18.558Z,74.48
2022-12-25T20:07:03.589Z,73.94
2022-12-25T20:09:48.387Z,74.86
2022-12-25T20:12:33.190Z,74.71
2022-12-25T20:15:18.146Z,73.85
2022-12-25T20:18:02.917Z,73.77
2022-12-25T20:20:48.025Z,74.15
2022-12-25T20:23:32.844Z,72.80
2022-12-25T20:26:17.945Z,72.78
2022-12-25T20:29:02.778Z,72.38
2022-12-25T20:31:47.811Z,73.53
2022-12-25T20:34:33.152Z,73.49
2022-12-25T20:37:18.054Z,72.24
2022-12-25T20:40:02.978Z,74.03
2022-12-25T20:42:47.981Z,75.01
2022-12-25T20:45:33.064Z,75.30
2022-12-25T20:48:18.364Z,74.33
2022-12-25T20:51:03.360Z,74.18
2022-12-25T20:53:48.220Z,74.24
2022-12-25T20:56:33.156Z,75.82
2022-12-25T20:59:18.176Z,77.00
2022-12-25T21:02:03.121Z,76.05
2022-12-25T21:04:53.962Z,74.90
2022-12-25T21:07:39.556Z,74.13
2022-12-25T21:10:24.483Z,73.86
2022-12-25T21:13:09.431Z,73.46
2022-12-25T21:15:54.280Z,75.84
2022-12-25T21:18:39.137Z,74.40
2022-12-25T21:21:23.909Z,75.41
2022-12-25T21:24:08.913Z,75.77
2022-12-25T21:26:53.658Z,74.78
2022-12-25T21:29:38.825Z,73.54
2022-12-25T21:32:23.830Z,73.97
2022-12-25T21:35:08.641Z,72.55
2022-12-25T21:37:53.622Z,72.67
2022-12-25T21:40:38.498Z,71.22
2022-12-25T21:43:23.411Z,72.05
2022-12-25T21:46:08.388Z,71.52
2022-12-25T21:48:53.228Z,72.81
2022-12-25T21:51:38.162Z,72.96
2022-12-25T21:54:23.060Z,73.94
2022-12-25T21:57:07.998Z,73.33
2022-12-25T21:59:52.754Z,74.62
2022-12-25T22:02:38.977Z,74.25
2022-12-25T22:05:24.200Z,73.57
2022-12-25T22:08:09.109Z,73.49
2022-12-25T22:10:53.960Z,74.41
2022-12-25T22:13:38.972Z,73.29
2022-12-25T22:16:23.977Z,73.50
2022-12-25T22:19:08.832Z,73.48
2022-12-25T22:21:53.782Z,73.63
2022-12-25T22:24:38.806Z,72.89
2022-12-25T22:27:23.783Z,74.29
2022-12-25T22:30:08.730Z,73.27
2022-12-25T22:32:53.694Z,73.40
2022-12-25T22:35:38.536Z,74.17
2022-12-25T22:38:23.421Z,73.87
2022-12-25T22:41:08.334Z,73.32
2022-12-25T22:44:16.623Z,72.36
2022-12-25T22:46:58.425Z,72.56
2022-12-25T22:49:43.280Z,72.40
2022-12-25T22:52:28.248Z,72.85
2022-12-25T22:55:13.546Z,73.21
2022-12-25T22:57:58.372Z,73.28
2022-12-25T23:00:46.454Z,72.82
2022-12-25T23:03:31.677Z,73.22
2022-12-25T23:06:17.104Z,72.82
2022-12-25T23:09:02.098Z,72.65
2022-12-25T23:11:46.930Z,72.41
2022-12-25T23:14:31.783Z,72.48
2022-12-25T23:17:16.548Z,72.32
2022-12-25T23:20:01.508Z,72.54
2022-12-25T23:22:46.455Z,71.68
2022-12-25T23:25:31.291Z,73.21
2022-12-25T23:28:16.333Z,72.84
2022-12-25T23:31:01.282Z,72.57
2022-12-25T23:33:46.125Z,72.49
2022-12-25T23:36:31.021Z,72.85
2022-12-25T23:39:15.994Z,72.69
2022-12-25T23:42:00.924Z,73.16
2022-12-25T23:44:46.045Z,73.04
2022-12-25T23:47:31.078Z,73.11
2022-12-25T23:50:15.980Z,73.68
2022-12-25T23:53:00.960Z,73.98
2022-12-25T23:55:50.042Z,73.71
2022-12-25T23:58:38.680Z,74.86
